Time;durP1;ratioP1;P1;durP2;ratioP2;P2;SDS_P1;SDS_P2;PMS_P1;PMS_P2;Temp;Humidity;BMP_temperature;BMP_pressure;BME280_temperature;BME280_humidity;BME280_pressure;Samples;Min_cycle;Max_cycle;Signal;HPM_P1;HPM_P2
2022/05/04 00:01:45;;;;;;;8.10;5.85;;;;;;;9.43;64.58;94726.75;4144645;28;20061;-54
2022/05/04 00:03:47;;;;;;;9.48;5.90;;;;;;;9.42;64.68;94725.94;4142892;28;20112;-51
2022/05/04 00:05:49;;;;;;;7.57;5.57;;;;;;;9.37;64.54;94722.94;4140833;28;20124;-52
2022/05/04 00:07:51;;;;;;;8.55;5.18;;;;;;;9.35;64.72;94729.31;4143311;28;20054;-54
2022/05/04 00:09:52;;;;;;;9.02;5.35;;;;;;;9.33;64.07;94732.06;4144320;28;20070;-53
2022/05/04 00:11:56;;;;;;;;;;;;;;;9.30;65.27;94734.19;4145019;28;20050;-52
2022/05/04 00:13:58;;;;;;;11.80;5.75;;;;;;;9.32;64.82;94732.25;4144491;28;19963;-51
2022/05/04 00:16:03;;;;;;;7.88;5.72;;;;;;;9.32;64.71;94735.66;4144734;28;20478;-53
2022/05/04 00:18:05;;;;;;;9.18;5.85;;;;;;;9.28;64.85;94729.09;4142779;28;20631;-55
2022/05/04 00:20:07;;;;;;;9.18;5.85;;;;;;;9.27;65.48;94734.47;4144384;28;20441;-53
2022/05/04 00:22:09;;;;;;;8.85;5.97;;;;;;;9.20;64.90;94724.59;4144256;28;20050;-49
2022/05/04 00:24:11;;;;;;;8.80;5.95;;;;;;;9.19;65.53;94725.59;4143024;28;20111;-52
2022/05/04 00:26:12;;;;;;;10.55;6.35;;;;;;;9.22;65.20;94732.31;4144335;28;20054;-52
2022/05/04 00:28:14;;;;;;;11.90;6.00;;;;;;;9.23;64.76;94723.50;4144240;28;20411;-52
2022/05/04 00:30:16;;;;;;;10.00;5.80;;;;;;;9.23;64.47;94728.72;4144144;28;20132;-55
2022/05/04 00:32:18;;;;;;;9.70;6.38;;;;;;;9.14;64.94;94727.84;4144302;28;20054;-49
2022/05/04 00:34:19;;;;;;;7.88;6.00;;;;;;;9.06;65.25;94726.94;4143781;28;20102;-51
2022/05/04 00:36:22;;;;;;;10.80;5.65;;;;;;;8.99;65.02;94735.38;4144131;28;20066;-52
2022/05/04 00:38:23;;;;;;;10.65;6.18;;;;;;;8.94;65.97;94728.94;4142771;28;20469;-51
2022/05/04 00:40:25;;;;;;;11.15;6.55;;;;;;;8.69;66.25;94738.28;4144038;28;20081;-51
2022/05/04 00:42:27;;;;;;;9.90;6.80;;;;;;;8.54;67.35;94745.78;4144033;28;20102;-54
2022/05/04 00:44:29;;;;;;;10.75;7.00;;;;;;;8.47;67.64;94742.94;4143851;28;20049;-53
2022/05/04 00:46:30;;;;;;;10.35;6.70;;;;;;;8.47;67.86;94745.56;4144014;28;20053;-52
2022/05/04 00:48:32;;;;;;;9.98;6.55;;;;;;;8.55;67.53;94743.03;4131853;28;20077;-52
2022/05/04 00:50:34;;;;;;;10.13;6.63;;;;;;;8.66;66.71;94741.22;4127389;28;20455;-53
2022/05/04 00:52:38;;;;;;;9.93;6.50;;;;;;;8.73;67.08;94744.88;4142340;28;20506;-52
2022/05/04 00:54:43;;;;;;;10.45;5.97;;;;;;;8.36;67.20;94756.97;4140952;28;20120;-54
2022/05/04 00:56:45;;;;;;;9.07;6.28;;;;;;;7.87;68.22;94758.09;4127712;28;20124;-54
2022/05/04 00:58:55;;;;;;;10.40;5.85;;;;;;;7.61;69.33;94763.91;4127717;28;20058;-55
2022/05/04 01:00:59;;;;;;;12.82;6.18;;;;;;;7.38;70.39;94763.41;4127609;28;20066;-54
2022/05/04 01:03:01;;;;;;;8.75;5.95;;;;;;;7.27;70.39;94766.13;4127366;28;20050;-53
2022/05/04 01:05:04;;;;;;;10.95;5.63;;;;;;;7.16;70.35;94764.47;4133918;28;20050;-53
2022/05/04 01:07:05;;;;;;;7.38;5.40;;;;;;;7.05;70.80;94775.03;4138991;28;20057;-49
2022/05/04 01:09:07;;;;;;;10.10;5.30;;;;;;;7.24;71.10;94769.84;4142293;28;20560;-50
2022/05/04 01:11:09;;;;;;;10.35;5.30;;;;;;;7.50;69.94;94757.06;4142935;28;20057;-49
2022/05/04 01:13:10;;;;;;;9.63;5.05;;;;;;;7.70;68.68;94768.31;4143305;28;20084;-53
2022/05/04 01:15:12;;;;;;;7.70;5.07;;;;;;;7.87;68.29;94758.94;4143408;28;20053;-56
2022/05/04 01:17:14;;;;;;;8.38;5.65;;;;;;;7.99;67.75;94751.78;4143492;28;20161;-55
2022/05/04 01:19:16;;;;;;;6.97;4.88;;;;;;;8.11;67.38;94760.22;4143184;28;20249;-56
2022/05/04 01:21:18;;;;;;;7.82;5.15;;;;;;;8.21;67.51;94755.81;4143440;28;20128;-54
2022/05/04 01:23:20;;;;;;;7.80;4.70;;;;;;;8.31;66.71;94751.38;4141841;28;20049;-55
2022/05/04 01:25:22;;;;;;;6.82;4.75;;;;;;;8.38;66.48;94749.00;4143344;28;20054;-52
2022/05/04 01:27:26;;;;;;;8.05;5.70;;;;;;;8.35;66.27;94752.75;4143358;28;20061;-52
2022/05/04 01:29:27;;;;;;;7.30;5.07;;;;;;;8.24;65.76;94757.31;4143517;28;20501;-49
2022/05/04 01:31:44;;;;;;;8.50;5.68;;;;;;;8.03;66.26;94757.53;4143248;28;20050;-54
2022/05/04 01:33:46;;;;;;;8.00;4.90;;;;;;;7.96;67.20;94757.28;4136916;28;20065;-54
2022/05/04 01:35:48;;;;;;;8.45;5.18;;;;;;;7.73;66.83;94757.59;4143387;28;20053;-52
2022/05/04 01:37:49;;;;;;;6.03;4.40;;;;;;;7.27;67.93;94761.75;4141272;28;20239;-53
2022/05/04 01:39:51;;;;;;;6.63;4.25;;;;;;;7.28;69.06;94757.38;4142713;28;20050;-53
2022/05/04 01:42:03;;;;;;;7.60;5.10;;;;;;;7.42;68.47;94758.72;4143297;28;20069;-52
2022/05/04 01:44:05;;;;;;;6.40;4.40;;;;;;;7.57;67.85;94762.53;4142961;28;20053;-54
2022/05/04 01:46:06;;;;;;;8.35;4.53;;;;;;;7.73;67.62;94760.19;4142968;28;20050;-52
2022/05/04 01:48:08;;;;;;;6.90;4.50;;;;;;;7.91;67.03;94757.69;4135690;28;20076;-54
2022/05/04 01:50:10;;;;;;;6.22;4.38;;;;;;;8.05;66.22;94756.41;4126340;28;20656;-53
2022/05/04 01:52:12;;;;;;;7.22;3.97;;;;;;;8.15;66.32;94752.00;4126817;28;20085;-49
2022/05/04 01:54:14;;;;;;;6.95;4.55;;;;;;;8.26;65.88;94751.00;4140723;28;20491;-51
2022/05/04 01:56:16;;;;;;;8.02;4.68;;;;;;;8.31;65.26;94750.56;4143067;28;20104;-53
2022/05/04 01:58:17;;;;;;;6.60;4.07;;;;;;;8.33;65.00;94746.03;4142776;28;20054;-53
2022/05/04 02:00:19;;;;;;;7.60;4.72;;;;;;;8.36;64.98;94741.31;4142984;28;20550;-51
2022/05/04 02:02:21;;;;;;;7.70;4.97;;;;;;;8.33;65.05;94744.22;4142875;28;20119;-53
2022/05/04 02:04:23;;;;;;;5.82;4.13;;;;;;;8.36;65.46;94743.13;4142338;28;20160;-54
2022/05/04 02:06:25;;;;;;;7.75;4.32;;;;;;;8.40;64.78;94739.25;4135625;28;20533;-51
2022/05/04 02:08:27;;;;;;;7.35;4.50;;;;;;;8.43;65.45;94746.81;4141129;28;20061;-49
2022/05/04 02:10:29;;;;;;;5.85;4.50;;;;;;;8.37;65.50;94756.03;4142758;28;20054;-54
2022/05/04 02:12:31;;;;;;;7.57;4.45;;;;;;;8.39;65.39;94742.84;4142825;28;20080;-52
2022/05/04 02:14:33;;;;;;;13.35;4.95;;;;;;;8.39;64.99;94737.63;4142753;28;20053;-55
2022/05/04 02:16:35;;;;;;;5.97;4.60;;;;;;;8.41;64.92;94733.09;4142730;28;20502;-53
2022/05/04 02:18:37;;;;;;;6.35;3.72;;;;;;;8.45;65.19;94731.81;4142171;28;20050;-48
2022/05/04 02:20:38;;;;;;;6.03;4.03;;;;;;;8.44;64.88;94735.41;4142490;28;20483;-49
2022/05/04 02:22:40;;;;;;;7.85;4.80;;;;;;;8.43;65.47;94741.59;4141899;28;20112;-49
2022/05/04 02:24:42;;;;;;;6.05;4.70;;;;;;;8.36;65.45;94737.88;4141157;28;20461;-52
2022/05/04 02:26:43;;;;;;;7.55;5.57;;;;;;;8.36;65.27;94746.53;4142603;28;20054;-49
2022/05/04 02:28:45;;;;;;;6.28;4.90;;;;;;;8.39;65.27;94743.66;4142471;28;20054;-53
2022/05/04 02:30:48;;;;;;;6.72;4.90;;;;;;;8.39;65.51;94748.06;4141322;28;20267;-54
2022/05/04 02:32:49;;;;;;;8.05;4.95;;;;;;;8.40;65.94;94739.25;4142120;28;20212;-52
2022/05/04 02:39:31;;;;;;;7.88;5.45;;;;;;;8.36;65.48;94743.13;4141158;28;20060;-53
2022/05/04 02:41:33;;;;;;;8.02;5.70;;;;;;;8.36;65.97;94740.50;4142487;28;20053;-52
2022/05/04 02:43:35;;;;;;;10.80;5.68;;;;;;;8.35;66.35;94744.09;4142357;28;20097;-54
2022/05/04 02:45:37;;;;;;;8.95;5.32;;;;;;;8.31;66.27;94733.09;4142740;28;20499;-50
2022/05/04 02:47:39;;;;;;;8.05;5.25;;;;;;;8.28;66.09;94740.41;4141997;28;20474;-51
2022/05/04 02:49:48;;;;;;;7.97;4.65;;;;;;;8.28;66.04;94748.22;4142275;28;20077;-51
2022/05/04 02:51:51;;;;;;;9.07;5.53;;;;;;;8.29;66.19;94748.09;4142440;28;20104;-53
2022/05/04 02:53:53;;;;;;;9.48;6.32;;;;;;;8.32;65.84;94749.59;4140728;28;20084;-53
2022/05/04 02:55:54;;;;;;;10.00;5.40;;;;;;;8.32;66.48;94749.59;4142414;28;20470;-53
2022/05/04 02:57:56;;;;;;;9.50;5.80;;;;;;;8.32;66.50;94758.22;4142263;28;20213;-51
2022/05/04 02:59:58;;;;;;;10.00;5.43;;;;;;;8.30;65.91;94762.81;4142383;28;20106;-52
2022/05/04 03:04:20;;;;;;;10.45;6.07;;;;;;;8.25;66.34;94766.78;4141912;28;20573;-52
2022/05/04 03:06:22;;;;;;;10.80;6.05;;;;;;;8.11;66.20;94775.88;4139143;28;20133;-50
2022/05/04 03:08:24;;;;;;;6.65;4.97;;;;;;;7.84;67.74;94779.25;4133980;28;20541;-51
2022/05/04 03:10:25;;;;;;;8.10;5.82;;;;;;;7.79;68.16;94772.69;4124661;28;20050;-53
2022/05/04 03:12:27;;;;;;;9.32;6.00;;;;;;;7.75;68.40;94786.97;4126133;28;20046;-51
2022/05/04 03:14:29;;;;;;;14.00;6.78;;;;;;;7.80;67.93;94784.75;4125874;28;20051;-54
2022/05/04 03:16:30;;;;;;;9.68;6.05;;;;;;;7.88;67.25;94791.06;4125733;28;20113;-53
2022/05/04 03:18:32;;;;;;;9.25;6.35;;;;;;;7.94;67.46;94793.13;4125774;28;20093;-54
2022/05/04 03:20:37;;;;;;;15.50;7.00;;;;;;;7.96;67.65;94793.81;4125979;28;20058;-49
2022/05/04 03:22:39;;;;;;;10.95;6.25;;;;;;;8.03;67.35;94797.47;4126080;28;20105;-50
2022/05/04 03:24:41;;;;;;;11.73;6.97;;;;;;;8.11;66.94;94789.78;4133105;28;20104;-53
2022/05/04 03:26:43;;;;;;;10.05;6.90;;;;;;;8.14;67.03;94788.66;4142211;28;20057;-55
2022/05/04 03:28:45;;;;;;;8.57;6.30;;;;;;;8.19;66.95;94786.44;4142267;28;20372;-52
2022/05/04 03:30:47;;;;;;;10.43;7.40;;;;;;;8.26;66.63;94789.31;4141796;28;20050;-52
2022/05/04 03:32:48;;;;;;;10.00;6.93;;;;;;;8.23;66.87;94782.59;4142166;28;20050;-52
2022/05/04 03:34:50;;;;;;;9.77;6.75;;;;;;;8.18;66.81;94785.63;4145066;28;20070;-53
2022/05/04 03:36:52;;;;;;;11.60;6.28;;;;;;;8.15;66.89;94788.53;4145035;28;20541;-53
2022/05/04 03:38:54;;;;;;;10.05;6.38;;;;;;;8.25;66.76;94787.66;4143743;28;20076;-52
2022/05/04 03:40:55;;;;;;;9.90;6.53;;;;;;;8.31;67.37;94797.53;4145094;28;20073;-53
2022/05/04 03:42:57;;;;;;;8.80;6.28;;;;;;;8.37;66.55;94792.56;4144980;28;20076;-53
2022/05/04 03:44:59;;;;;;;11.90;6.90;;;;;;;8.46;66.12;94790.09;4144825;28;20057;-52
2022/05/04 03:47:00;;;;;;;8.68;6.18;;;;;;;8.51;65.70;94799.13;4144957;28;20120;-53
2022/05/04 03:49:02;;;;;;;8.82;5.18;;;;;;;8.55;65.38;94797.88;4137653;28;20433;-52
2022/05/04 03:51:05;;;;;;;9.10;5.25;;;;;;;8.57;65.18;94798.56;4144628;28;20101;-52
2022/05/04 03:53:06;;;;;;;8.00;5.43;;;;;;;8.63;65.32;94791.94;4143326;28;20050;-55
2022/05/04 03:55:08;;;;;;;8.02;5.40;;;;;;;8.70;64.79;94793.00;4144887;28;20407;-57
2022/05/04 03:57:10;;;;;;;7.00;4.60;;;;;;;8.29;64.66;94794.25;4144756;28;20065;-53
2022/05/04 03:59:12;;;;;;;7.80;5.05;;;;;;;8.24;65.09;94796.44;4144834;28;20045;-54
2022/05/04 04:01:14;;;;;;;6.53;4.45;;;;;;;8.23;65.18;94794.81;4144145;28;20089;-51
2022/05/04 04:03:15;;;;;;;9.35;4.95;;;;;;;8.31;64.88;94795.75;4144470;28;20473;-53
2022/05/04 04:05:17;;;;;;;13.15;4.40;;;;;;;8.34;64.67;94792.84;4143615;28;20403;-53
2022/05/04 04:07:19;;;;;;;7.90;4.80;;;;;;;8.29;63.95;94804.69;4142121;28;20100;-50
2022/05/04 04:09:21;;;;;;;7.85;4.47;;;;;;;8.02;65.37;94811.47;4137245;28;20041;-53
2022/05/04 04:11:22;;;;;;;10.40;5.03;;;;;;;7.84;66.11;94816.59;4144537;28;20050;-58
2022/05/04 04:13:24;;;;;;;8.73;5.03;;;;;;;7.78;66.47;94812.75;4144096;28;20384;-52
2022/05/04 04:15:26;;;;;;;15.93;6.32;;;;;;;7.78;66.80;94814.53;4142885;28;20058;-53
2022/05/04 04:17:29;;;;;;;9.80;5.50;;;;;;;7.48;67.77;94820.72;4144459;28;20076;-53
2022/05/04 04:19:31;;;;;;;15.18;6.30;;;;;;;7.41;68.41;94819.63;4144211;28;20062;-54
2022/05/04 04:21:52;;;;;;;11.70;6.70;;;;;;;7.34;68.74;94828.00;4144560;28;20050;-54
2022/05/04 04:23:55;;;;;;;16.63;7.82;;;;;;;7.49;68.54;94822.41;4142900;28;20045;-54
2022/05/04 04:25:56;;;;;;;13.95;7.22;;;;;;;7.51;68.50;94826.50;4144408;28;20598;-55
2022/05/04 04:27:58;;;;;;;15.43;8.40;;;;;;;7.69;67.75;94831.84;4144447;28;20057;-52
2022/05/04 04:30:00;;;;;;;12.02;7.30;;;;;;;7.89;67.26;94835.25;4144307;28;20083;-51
2022/05/04 04:32:02;;;;;;;12.95;7.75;;;;;;;8.02;67.67;94834.94;4144255;28;20151;-54
2022/05/04 04:34:04;;;;;;;12.50;7.78;;;;;;;8.16;67.27;94834.53;4143852;28;20050;-52
2022/05/04 04:36:13;;;;;;;16.38;9.13;;;;;;;8.40;66.78;94833.22;4144239;28;20499;-53
2022/05/04 04:38:14;;;;;;;14.50;9.30;;;;;;;8.61;66.16;94830.44;4142702;28;20415;-54
2022/05/04 04:40:16;;;;;;;14.00;9.50;;;;;;;8.82;65.93;94835.44;4144010;28;20140;-53
2022/05/04 04:42:18;;;;;;;13.38;9.65;;;;;;;9.05;65.13;94837.66;4144101;28;20479;-51
2022/05/04 04:44:20;;;;;;;13.48;9.73;;;;;;;9.21;64.27;94843.06;4143558;28;20061;-51
2022/05/04 04:46:22;;;;;;;16.50;9.82;;;;;;;9.33;63.41;94843.66;4143511;28;20495;-50
2022/05/04 04:48:23;;;;;;;17.65;9.32;;;;;;;9.08;62.52;94837.34;4134725;28;20152;-51
2022/05/04 04:50:25;;;;;;;13.82;9.43;;;;;;;8.95;63.97;94833.31;4127823;28;20403;-48
2022/05/04 04:52:27;;;;;;;18.73;9.60;;;;;;;9.03;63.97;94829.94;4127600;28;20591;-51
2022/05/04 04:54:28;;;;;;;11.45;7.50;;;;;;;8.83;63.29;94824.00;4126391;28;20410;-49
2022/05/04 04:56:30;;;;;;;10.90;7.25;;;;;;;8.84;63.75;94827.44;4127768;28;20157;-50
2022/05/04 04:58:32;;;;;;;14.20;8.52;;;;;;;8.94;63.15;94829.03;4127307;28;20128;-50
2022/05/04 05:00:34;;;;;;;15.38;8.45;;;;;;;8.68;63.81;94831.50;4127635;28;20205;-51
2022/05/04 05:02:36;;;;;;;14.88;8.45;;;;;;;8.38;65.03;94838.59;4127827;28;20042;-50
2022/05/04 05:04:38;;;;;;;14.15;8.40;;;;;;;7.88;66.64;94846.66;4126973;28;20058;-54
2022/05/04 05:06:40;;;;;;;13.70;8.38;;;;;;;7.89;67.25;94839.66;4127172;28;20426;-53
2022/05/04 05:08:42;;;;;;;11.68;8.52;;;;;;;8.04;66.89;94838.25;4130403;28;20046;-53
2022/05/04 05:10:43;;;;;;;13.68;8.10;;;;;;;8.27;66.44;94830.94;4131680;28;20108;-53
2022/05/04 05:12:45;;;;;;;10.75;7.07;;;;;;;8.52;65.84;94831.31;4127227;28;20050;-53
2022/05/04 05:17:13;;;;;;;13.85;7.80;;;;;;;8.74;65.07;94838.75;4127506;28;20066;-52
2022/05/04 05:19:15;;;;;;;9.43;7.10;;;;;;;8.61;64.94;94846.94;4126952;28;20486;-52
2022/05/04 05:21:17;;;;;;;17.17;7.95;;;;;;;8.44;65.29;94842.44;4132465;28;20470;-54
2022/05/04 05:23:20;;;;;;;12.15;7.68;;;;;;;8.14;67.06;94849.50;4141762;28;20086;-50
2022/05/04 05:25:21;;;;;;;21.60;8.77;;;;;;;8.26;66.57;94849.34;4143075;28;20057;-52
2022/05/04 05:27:23;;;;;;;19.92;7.72;;;;;;;8.23;67.09;94844.41;4143088;28;20045;-52
2022/05/04 05:29:25;;;;;;;14.63;7.88;;;;;;;8.32;66.92;94851.38;4143386;28;20487;-51
2022/05/04 05:31:27;;;;;;;15.77;7.97;;;;;;;8.36;65.67;94850.94;4143179;28;20054;-52
2022/05/04 05:33:28;;;;;;;12.13;7.93;;;;;;;8.31;66.19;94847.94;4142851;28;20129;-51
2022/05/04 05:35:30;;;;;;;13.10;8.52;;;;;;;8.48;65.67;94843.81;4143411;28;20184;-51
2022/05/04 05:37:32;;;;;;;13.57;8.18;;;;;;;8.63;65.51;94844.19;4142955;28;20534;-53
2022/05/04 05:39:34;;;;;;;12.65;7.35;;;;;;;8.82;65.58;94838.06;4141607;28;20052;-53
2022/05/04 05:41:36;;;;;;;13.13;8.57;;;;;;;9.09;64.96;94845.06;4143175;28;20447;-52
2022/05/04 05:43:37;;;;;;;18.13;8.63;;;;;;;9.41;63.75;94835.91;4142769;28;20049;-53
2022/05/04 05:45:39;;;;;;;14.02;8.27;;;;;;;9.69;62.38;94835.84;4141628;28;20060;-53
2022/05/04 05:47:41;;;;;;;15.82;8.85;;;;;;;9.80;61.45;94833.00;4142860;28;20451;-51
2022/05/04 05:49:43;;;;;;;13.35;9.02;;;;;;;9.81;61.67;94837.28;4142697;28;20111;-54
2022/05/04 05:51:44;;;;;;;12.52;7.75;;;;;;;9.92;61.32;94834.41;4143017;28;20119;-54
2022/05/04 05:53:46;;;;;;;13.63;7.15;;;;;;;10.10;61.12;94831.75;4141239;28;20054;-52
2022/05/04 05:55:48;;;;;;;13.50;8.23;;;;;;;10.24;60.95;94835.63;4142543;28;20544;-55
2022/05/04 05:57:50;;;;;;;16.63;8.35;;;;;;;10.15;61.05;94826.91;4142312;28;20050;-53
2022/05/04 05:59:51;;;;;;;12.35;7.45;;;;;;;10.29;60.82;94825.53;4142379;28;20057;-53
2022/05/04 06:01:54;;;;;;;13.52;8.25;;;;;;;10.31;60.25;94826.22;4142730;28;20050;-48
2022/05/04 06:03:56;;;;;;;14.32;8.40;;;;;;;9.82;60.98;94829.25;4141936;28;20049;-54
2022/05/04 06:05:58;;;;;;;12.15;8.57;;;;;;;9.60;62.07;94832.34;4142386;28;20061;-52
2022/05/04 06:07:59;;;;;;;19.92;8.70;;;;;;;9.52;63.04;94827.84;4140968;28;20061;-51
2022/05/04 06:10:04;;;;;;;12.32;8.02;;;;;;;9.31;63.02;94832.53;4138364;28;20057;-52
2022/05/04 06:12:06;;;;;;;14.00;7.90;;;;;;;9.55;63.00;94842.41;4138496;28;20065;-52
2022/05/04 06:14:08;;;;;;;19.75;8.27;;;;;;;9.62;61.97;94833.81;4142443;28;20049;-49
2022/05/04 06:16:10;;;;;;;18.02;9.48;;;;;;;9.63;62.41;94835.47;4142484;28;20473;-55
2022/05/04 06:18:12;;;;;;;13.65;8.35;;;;;;;9.68;62.54;94842.03;4142396;28;20072;-53
2022/05/04 06:20:13;;;;;;;17.60;9.40;;;;;;;9.75;61.95;94848.34;4142408;28;20104;-54
2022/05/04 06:22:15;;;;;;;16.05;8.60;;;;;;;9.77;62.52;94852.44;4129302;28;20050;-52
2022/05/04 06:24:17;;;;;;;19.48;9.45;;;;;;;9.10;63.31;94854.56;4144889;28;20132;-51
2022/05/04 06:26:20;;;;;;;15.63;8.07;;;;;;;9.26;64.57;94853.09;4142443;28;20053;-50
2022/05/04 06:28:22;;;;;;;10.10;7.80;;;;;;;9.61;63.26;94844.44;4142581;28;20136;-51
2022/05/04 06:35:05;;;;;;;18.75;10.45;;;;;;;9.27;63.99;94846.88;4142415;28;20091;-52
2022/05/04 06:37:06;;;;;;;14.80;10.70;;;;;;;9.53;63.74;94842.56;4142492;28;20111;-49
2022/05/04 06:39:09;;;;;;;14.93;10.38;;;;;;;9.93;62.83;94840.47;4140630;28;20058;-50
2022/05/04 06:41:11;;;;;;;19.23;10.73;;;;;;;10.31;61.59;94833.25;4142705;28;20062;-51
2022/05/04 06:43:13;;;;;;;17.60;10.70;;;;;;;10.50;60.05;94835.66;4142227;28;20170;-52
2022/05/04 06:45:14;;;;;;;13.98;9.77;;;;;;;10.63;59.69;94837.84;4142300;28;20543;-50
2022/05/04 06:47:16;;;;;;;17.08;10.15;;;;;;;10.72;59.97;94841.34;4142324;28;20046;-53
2022/05/04 06:49:18;;;;;;;18.65;12.23;;;;;;;10.67;60.07;94836.56;4125559;28;20050;-54
2022/05/04 06:51:19;;;;;;;16.45;11.00;;;;;;;10.47;60.60;94838.56;4126020;28;20050;-53
2022/05/04 06:53:21;;;;;;;25.65;12.25;;;;;;;10.77;60.85;94844.28;4124465;28;20058;-52
2022/05/04 06:55:23;;;;;;;18.85;11.30;;;;;;;11.02;60.06;94846.03;4126138;28;20061;-53
2022/05/04 06:57:24;;;;;;;17.08;11.63;;;;;;;11.26;59.26;94839.25;4125857;28;20129;-52
2022/05/04 06:59:27;;;;;;;17.60;11.40;;;;;;;11.19;59.10;94836.44;4126088;28;20057;-54
2022/05/04 07:01:30;;;;;;;17.88;11.55;;;;;;;11.28;59.65;94848.59;4126291;28;20170;-55
2022/05/04 07:03:31;;;;;;;16.85;10.68;;;;;;;11.28;59.20;94843.34;4125616;28;20068;-52
2022/05/04 07:05:33;;;;;;;14.82;10.73;;;;;;;10.98;59.24;94842.09;4125834;28;20051;-53
2022/05/04 07:07:35;;;;;;;15.13;10.70;;;;;;;11.11;59.25;94846.09;4125789;28;20054;-52
2022/05/04 07:09:37;;;;;;;15.82;10.02;;;;;;;11.13;59.20;94842.31;4127566;28;20565;-54
2022/05/04 07:11:39;;;;;;;18.23;9.60;;;;;;;11.24;58.91;94842.00;4139116;28;20108;-52
2022/05/04 07:13:42;;;;;;;16.58;10.35;;;;;;;11.37;58.48;94844.19;4144743;28;20060;-51
2022/05/04 07:15:44;;;;;;;13.57;9.52;;;;;;;11.63;58.32;94844.06;4145265;28;20088;-54
2022/05/04 07:17:46;;;;;;;15.77;9.30;;;;;;;11.95;57.65;94834.63;4145176;28;20058;-49
2022/05/04 07:19:48;;;;;;;18.88;9.82;;;;;;;12.25;56.87;94832.31;4144693;28;20718;-55
2022/05/04 07:21:50;;;;;;;16.55;9.60;;;;;;;12.32;56.25;94835.91;4144439;28;20054;-57
2022/05/04 07:23:52;;;;;;;16.75;9.98;;;;;;;12.28;56.28;94837.22;4143000;28;20069;-52
2022/05/04 07:25:54;;;;;;;25.13;10.75;;;;;;;12.39;56.11;94833.44;4144938;28;20140;-51
2022/05/04 07:27:56;;;;;;;20.58;10.98;;;;;;;12.47;55.21;94834.22;4144643;28;20131;-49
2022/05/04 07:29:57;;;;;;;17.92;11.13;;;;;;;12.60;55.16;94831.09;4144513;28;20064;-51
2022/05/04 07:32:00;;;;;;;15.10;9.30;;;;;;;12.73;54.66;94840.25;4144696;28;20046;-50
2022/05/04 07:34:02;;;;;;;14.75;9.38;;;;;;;12.65;54.74;94830.59;4144170;28;20054;-54
2022/05/04 07:36:04;;;;;;;16.48;9.45;;;;;;;12.74;54.84;94826.97;4144866;28;20061;-51
2022/05/04 07:38:05;;;;;;;14.70;8.55;;;;;;;12.88;54.02;94828.03;4143406;28;20062;-50
2022/05/04 07:42:28;;;;;;;18.92;9.95;;;;;;;13.15;53.76;94826.78;4145123;28;20054;-51
2022/05/04 07:44:30;;;;;;;13.18;9.60;;;;;;;13.37;53.73;94825.22;4144786;28;20061;-51
2022/05/04 07:46:33;;;;;;;12.63;9.52;;;;;;;13.46;52.68;94826.00;4145016;28;20055;-53
2022/05/04 07:48:35;;;;;;;15.07;9.48;;;;;;;13.61;52.57;94826.06;4144166;28;20053;-52
2022/05/04 07:50:37;;;;;;;11.90;8.18;;;;;;;13.76;51.86;94821.69;4144667;28;20057;-55
2022/05/04 07:52:39;;;;;;;13.32;8.23;;;;;;;13.93;51.47;94819.75;4144536;28;20054;-53
2022/05/04 07:54:44;;;;;;;10.93;8.02;;;;;;;14.10;51.60;94812.53;4143487;28;20058;-52
2022/05/04 07:56:45;;;;;;;16.05;8.70;;;;;;;13.99;50.91;94821.69;4144771;28;20053;-53
2022/05/04 07:58:47;;;;;;;11.93;7.40;;;;;;;13.79;51.39;94821.34;4144655;28;20050;-50
2022/05/04 08:05:50;;;;;;;12.50;6.80;;;;;;;14.10;50.12;94813.34;4141332;28;20357;-56
2022/05/04 08:07:52;;;;;;;13.70;6.32;;;;;;;14.21;50.51;94822.66;4140976;28;20632;-54
2022/05/04 08:09:53;;;;;;;9.13;5.68;;;;;;;14.40;49.68;94816.06;4141618;28;20290;-55
2022/05/04 08:11:56;;;;;;;13.50;6.95;;;;;;;13.98;50.53;94814.81;4143047;28;20046;-55
2022/05/04 08:13:58;;;;;;;11.68;6.57;;;;;;;13.89;51.59;94814.00;4142670;28;20461;-54
2022/05/04 08:16:01;;;;;;;;;;;;;;;14.22;50.85;94805.88;4144525;28;20128;-54
2022/05/04 08:18:04;;;;;;;10.27;5.20;;;;;;;14.44;49.17;94808.63;4144023;28;20293;-52
2022/05/04 08:20:06;;;;;;;11.60;5.20;;;;;;;14.52;48.24;94809.34;4142605;28;20057;-54
2022/05/04 08:22:12;;;;;;;14.85;5.93;;;;;;;14.37;48.57;94803.25;4132004;28;20082;-53
2022/05/04 08:24:14;;;;;;;14.80;5.60;;;;;;;14.36;49.23;94806.88;4131696;28;20510;-50
2022/05/04 08:26:16;;;;;;;16.70;6.45;;;;;;;14.61;49.80;94804.84;4143787;28;20252;-55
2022/05/04 08:28:19;;;;;;;10.98;4.22;;;;;;;14.86;48.77;94812.47;4144184;28;20104;-55
2022/05/04 08:30:21;;;;;;;11.77;2.88;;;;;;;14.95;46.55;94803.50;4144116;28;20390;-57
2022/05/04 08:32:29;;;;;;;6.40;3.17;;;;;;;14.90;46.64;94806.66;4144096;28;20128;-53
2022/05/04 08:34:31;;;;;;;7.63;3.40;;;;;;;15.04;46.86;94805.00;4143594;28;20077;-55
2022/05/04 08:36:32;;;;;;;6.25;3.58;;;;;;;15.38;45.92;94797.47;4143973;28;20133;-53
2022/05/04 08:38:34;;;;;;;7.05;3.53;;;;;;;15.08;45.30;94806.28;4142713;28;20062;-54
2022/05/04 08:40:37;;;;;;;8.68;3.55;;;;;;;15.20;45.07;94803.97;4144085;28;20111;-52
2022/05/04 08:42:41;;;;;;;7.88;3.17;;;;;;;15.15;44.57;94807.19;4142786;28;20093;-55
2022/05/04 08:44:44;;;;;;;4.38;2.67;;;;;;;14.90;45.54;94811.09;4144303;28;20565;-54
2022/05/04 08:46:46;;;;;;;5.20;2.60;;;;;;;14.95;45.97;94801.66;4142306;28;20261;-54
2022/05/04 08:48:48;;;;;;;6.25;2.85;;;;;;;15.07;43.80;94796.72;4131417;28;20050;-53
2022/05/04 08:50:50;;;;;;;4.13;2.08;;;;;;;15.25;43.31;94800.78;4126053;28;20065;-53
2022/05/04 08:52:55;;;;;;;4.03;2.10;;;;;;;15.46;43.38;94800.81;4126494;28;20316;-54
2022/05/04 08:54:57;;;;;;;5.28;2.55;;;;;;;15.58;43.26;94801.16;4126263;28;20560;-53
2022/05/04 08:57:00;;;;;;;5.57;2.15;;;;;;;15.79;43.90;94795.13;4127514;28;20196;-53
2022/05/04 08:59:02;;;;;;;9.48;3.03;;;;;;;15.81;43.03;94797.53;4127169;28;20054;-55
2022/05/04 09:01:05;;;;;;;4.50;2.00;;;;;;;15.62;43.19;94802.44;4127748;28;20626;-52
2022/05/04 09:03:07;;;;;;;3.60;2.00;;;;;;;15.72;43.81;94804.78;4127320;28;20683;-51
2022/05/04 09:05:18;;;;;;;3.47;2.15;;;;;;;15.86;43.50;94808.38;4126815;28;20058;-56
2022/05/04 09:07:24;;;;;;;3.72;2.60;;;;;;;15.52;43.92;94807.19;4127028;28;20062;-54
2022/05/04 09:09:26;;;;;;;5.30;2.50;;;;;;;15.69;43.92;94802.50;4125873;28;20049;-55
2022/05/04 09:11:28;;;;;;;2.55;1.83;;;;;;;15.59;42.41;94801.97;4126985;28;20116;-52
2022/05/04 09:13:29;;;;;;;3.30;2.13;;;;;;;15.88;43.84;94801.91;4134750;28;20112;-54
2022/05/04 09:15:33;;;;;;;5.63;2.15;;;;;;;16.20;43.66;94794.44;4142537;28;20066;-55
2022/05/04 09:17:35;;;;;;;;;;;;;;;16.54;42.89;94790.19;4143798;28;20483;-53
2022/05/04 09:19:37;;;;;;;3.65;2.00;;;;;;;16.78;41.04;94791.59;4141291;28;19941;-52
2022/05/04 09:21:40;;;;;;;4.47;2.65;;;;;;;16.91;42.25;94798.81;4143071;28;20103;-52
2022/05/04 09:23:42;;;;;;;4.53;2.08;;;;;;;17.05;42.95;94797.03;4141779;28;20054;-53
2022/05/04 09:25:44;;;;;;;4.43;2.55;;;;;;;16.69;43.19;94793.56;4141306;28;20463;-53
2022/05/04 09:27:47;;;;;;;4.05;2.35;;;;;;;16.72;43.27;94790.53;4143017;28;20084;-53
2022/05/04 09:29:59;;;;;;;7.10;2.60;;;;;;;16.91;42.57;94794.34;4143005;28;20109;-52
2022/05/04 09:32:01;;;;;;;6.05;2.42;;;;;;;17.06;42.18;94785.44;4142319;28;20057;-50
2022/05/04 09:34:06;;;;;;;3.97;1.95;;;;;;;17.21;41.95;94786.13;4130465;28;20043;-55
2022/05/04 09:36:11;;;;;;;6.05;2.47;;;;;;;17.26;41.31;94782.88;4141070;28;20571;-52
2022/05/04 09:45:21;;;;;;;2.60;2.00;;;;;;;17.77;41.44;94772.63;4142829;28;20290;-55
2022/05/04 09:47:23;;;;;;;4.55;2.10;;;;;;;17.80;40.61;94776.69;4141705;28;20112;-54
2022/05/04 09:49:30;;;;;;;3.20;2.20;;;;;;;17.90;40.50;94769.19;4126568;28;20112;-58
2022/05/04 09:51:32;;;;;;;6.88;2.30;;;;;;;18.06;40.24;94769.81;4136397;28;20049;-55
2022/05/04 09:53:36;;;;;;;5.65;2.28;;;;;;;18.11;40.38;94770.84;4141213;28;20046;-53
2022/05/04 09:55:38;;;;;;;4.45;2.30;;;;;;;18.23;39.92;94760.44;4142836;28;20145;-52
2022/05/04 09:57:41;;;;;;;5.93;1.95;;;;;;;18.26;39.99;94761.84;4141735;28;20119;-53
2022/05/04 09:59:43;;;;;;;3.40;1.73;;;;;;;18.21;39.96;94757.97;4157423;28;20061;-54
2022/05/04 10:01:45;;;;;;;7.93;2.15;;;;;;;18.42;40.21;94756.13;4157238;28;20107;-54
2022/05/04 10:03:50;;;;;;;4.45;2.25;;;;;;;18.47;39.10;94758.16;4157363;28;20565;-53
2022/05/04 10:05:54;;;;;;;3.00;1.70;;;;;;;18.57;39.12;94750.59;4141011;28;20058;-55